Cap Theodora — SVAM5 — position and weather

sailwx.info

Track history (hours):
 
Tides and Currents Weather Stations Pressure Air Temp Water Temp Dewpoint Dewpoint Depression Visibility Wind Speed Wind Dir Waves Ship Positions

Cap Theodora

Last reported at 2017-Nov-02 20:04 UTC. Time now 2017-Nov-18 14:21 UTC.
Position N 26°19' W 079°26'.
Warning: this ship's position is 15 days out of date.

Length 274 m; draft 11 m.

Type: Ship. MMSI: 240840000.

Date/timePositionNaut miles runAvg speedWind from/ knotsBaromVisibWave heightAir tempDewpointWater temp
2017-Nov-02 20:04N 26°19' W 079°26'114.9
2017-Nov-02 20:00N 26°19' W 079°26'815.0
2017-Nov-02 19:27N 26°10' W 079°27'1415.0
2017-Nov-02 18:30N 25°56' W 079°29'715.1
2017-Nov-02 18:00N 25°49' W 079°30'815.7
2017-Nov-02 17:30N 25°41' W 079°30'1115.2
2017-Nov-02 16:49N 25°31' W 079°33'  
2017-Oct-30 16:30N 29°26' W 094°50'510.9
2017-Oct-30 16:00N 29°31' W 094°53'510.4
2017-Oct-30 15:30N 29°36' W 094°57'5 9.7
2017-Oct-30 15:00N 29°40' W 094°59'4 7.5
2017-Oct-30 14:30N 29°43' W 095°01'5 5.0
2017-Oct-30 13:29N 29°44' W 095°07'0 1.0
2017-Oct-30 13:00N 29°44' W 095°07'0 0.0
2017-Oct-30 06:53N 29°44' W 095°07'  
2017-Oct-27 19:10N 29°44' W 095°07'0 0.0
2017-Oct-27 19:00N 29°44' W 095°07'1 2.2
2017-Oct-27 18:30N 29°45' W 095°06'2 4.7
2017-Oct-27 18:00N 29°44' W 095°04'3 6.4
2017-Oct-27 17:30N 29°42' W 095°01'4 8.7
2017-Oct-27 17:00N 29°39' W 094°58'510.2
2017-Oct-27 16:30N 29°34' W 094°55'611.1
2017-Oct-27 16:00N 29°29' W 094°52'611.5
2017-Oct-27 15:30N 29°24' W 094°49'  
Track history (hours):
 
Tides and Currents Weather Stations Pressure Air Temp Water Temp Dewpoint Dewpoint Depression Visibility Wind Speed Wind Dir Waves Ship Positions

Cap Theodora

Last reported at 2017-Nov-02 20:04 UTC. Time now 2017-Nov-18 14:21 UTC.
Position N 26°19' W 079°26'.
Warning: this ship's position is 15 days out of date.

Length 274 m; draft 11 m.

Type: Ship. MMSI: 240840000.

Date/timePositionNaut miles runAvg speedWind from/ knotsBaromVisibWave heightAir tempDewpointWater temp
2017-Nov-02 20:04N 26°19' W 079°26'114.9
2017-Nov-02 20:00N 26°19' W 079°26'815.0
2017-Nov-02 19:27N 26°10' W 079°27'1415.0
2017-Nov-02 18:30N 25°56' W 079°29'715.1
2017-Nov-02 18:00N 25°49' W 079°30'815.7
2017-Nov-02 17:30N 25°41' W 079°30'1115.2
2017-Nov-02 16:49N 25°31' W 079°33'  
2017-Oct-30 16:30N 29°26' W 094°50'510.9
2017-Oct-30 16:00N 29°31' W 094°53'510.4
2017-Oct-30 15:30N 29°36' W 094°57'5 9.7
2017-Oct-30 15:00N 29°40' W 094°59'4 7.5
2017-Oct-30 14:30N 29°43' W 095°01'5 5.0
2017-Oct-30 13:29N 29°44' W 095°07'0 1.0
2017-Oct-30 13:00N 29°44' W 095°07'0 0.0
2017-Oct-30 06:53N 29°44' W 095°07'  
2017-Oct-27 19:10N 29°44' W 095°07'0 0.0
2017-Oct-27 19:00N 29°44' W 095°07'1 2.2
2017-Oct-27 18:30N 29°45' W 095°06'2 4.7
2017-Oct-27 18:00N 29°44' W 095°04'3 6.4
2017-Oct-27 17:30N 29°42' W 095°01'4 8.7
2017-Oct-27 17:00N 29°39' W 094°58'510.2
2017-Oct-27 16:30N 29°34' W 094°55'611.1
2017-Oct-27 16:00N 29°29' W 094°52'611.5
2017-Oct-27 15:30N 29°24' W 094°49'  

Dump ship's entire track history